sensor_id;sensor_type;location;lat;lon;timestamp;temperature;humidity
49829;DHT22;35723;51.194;5.112;2022-12-18T00:00:29;-2.30;99.90
49829;DHT22;35723;51.194;5.112;2022-12-18T00:02:55;-2.20;99.90
49829;DHT22;35723;51.194;5.112;2022-12-18T00:05:47;-2.40;99.90
49829;DHT22;35723;51.194;5.112;2022-12-18T00:08:32;-2.50;99.90
49829;DHT22;35723;51.194;5.112;2022-12-18T00:11:10;-2.50;99.90
49829;DHT22;35723;51.194;5.112;2022-12-18T00:13:37;-2.50;99.90
49829;DHT22;35723;51.194;5.112;2022-12-18T00:16:24;-2.60;99.90
49829;DHT22;35723;51.194;5.112;2022-12-18T00:18:53;-2.70;99.90
49829;DHT22;35723;51.194;5.112;2022-12-18T00:21:20;-2.70;99.90
49829;DHT22;35723;51.194;5.112;2022-12-18T00:23:49;-2.70;99.90
49829;DHT22;35723;51.194;5.112;2022-12-18T00:26:35;-2.60;99.90
49829;DHT22;35723;51.194;5.112;2022-12-18T00:29:03;-2.60;99.90
49829;DHT22;35723;51.194;5.112;2022-12-18T00:31:29;-2.50;99.90
49829;DHT22;35723;51.194;5.112;2022-12-18T00:33:57;-2.50;99.90
49829;DHT22;35723;51.194;5.112;2022-12-18T00:36:42;-2.60;99.90
49829;DHT22;35723;51.194;5.112;2022-12-18T00:39:09;-2.70;99.90
49829;DHT22;35723;51.194;5.112;2022-12-18T00:41:35;-2.70;99.90
49829;DHT22;35723;51.194;5.112;2022-12-18T00:44:19;-2.70;99.90
49829;DHT22;35723;51.194;5.112;2022-12-18T00:46:45;-3.00;99.90
49829;DHT22;35723;51.194;5.112;2022-12-18T00:49:11;-3.00;99.90
49829;DHT22;35723;51.194;5.112;2022-12-18T00:51:37;-3.20;99.90
49829;DHT22;35723;51.194;5.112;2022-12-18T00:54:03;-3.10;99.90
49829;DHT22;35723;51.194;5.112;2022-12-18T00:56:28;-3.00;99.90
49829;DHT22;35723;51.194;5.112;2022-12-18T00:58:54;-2.90;99.90
49829;DHT22;35723;51.194;5.112;2022-12-18T01:01:20;-2.90;99.90
49829;DHT22;35723;51.194;5.112;2022-12-18T01:03:45;-2.90;99.90
49829;DHT22;35723;51.194;5.112;2022-12-18T01:06:13;-3.00;99.90
49829;DHT22;35723;51.194;5.112;2022-12-18T01:08:39;-3.00;99.90
49829;DHT22;35723;51.194;5.112;2022-12-18T01:11:13;-3.00;99.90
49829;DHT22;35723;51.194;5.112;2022-12-18T01:13:39;-3.00;99.90
49829;DHT22;35723;51.194;5.112;2022-12-18T01:16:05;-2.90;99.90
49829;DHT22;35723;51.194;5.112;2022-12-18T01:18:31;-2.90;99.90
49829;DHT22;35723;51.194;5.112;2022-12-18T01:20:56;-2.90;99.90
49829;DHT22;35723;51.194;5.112;2022-12-18T01:23:22;-2.90;99.90
49829;DHT22;35723;51.194;5.112;2022-12-18T01:25:48;-2.90;99.90
49829;DHT22;35723;51.194;5.112;2022-12-18T01:28:13;-2.90;99.90
49829;DHT22;35723;51.194;5.112;2022-12-18T01:30:39;-3.00;99.90
49829;DHT22;35723;51.194;5.112;2022-12-18T01:33:05;-3.00;99.90
49829;DHT22;35723;51.194;5.112;2022-12-18T01:35:31;-3.00;99.90
49829;DHT22;35723;51.194;5.112;2022-12-18T01:37:56;-3.10;99.90
49829;DHT22;35723;51.194;5.112;2022-12-18T01:40:23;-3.10;99.90
49829;DHT22;35723;51.194;5.112;2022-12-18T01:42:52;-3.10;99.90
49829;DHT22;35723;51.194;5.112;2022-12-18T01:47:51;-3.10;99.90
49829;DHT22;35723;51.194;5.112;2022-12-18T01:50:38;-3.10;99.90
49829;DHT22;35723;51.194;5.112;2022-12-18T01:53:06;-3.20;99.90
49829;DHT22;35723;51.194;5.112;2022-12-18T01:55:44;-3.20;99.90
49829;DHT22;35723;51.194;5.112;2022-12-18T01:58:10;-3.20;99.90
49829;DHT22;35723;51.194;5.112;2022-12-18T02:00:36;-3.20;99.90
49829;DHT22;35723;51.194;5.112;2022-12-18T02:03:02;-3.30;99.90
49829;DHT22;35723;51.194;5.112;2022-12-18T02:08:39;-3.30;99.90
49829;DHT22;35723;51.194;5.112;2022-12-18T02:14:29;-3.30;99.90
49829;DHT22;35723;51.194;5.112;2022-12-18T02:17:07;-3.30;99.90
49829;DHT22;35723;51.194;5.112;2022-12-18T02:27:34;-3.30;99.90
49829;DHT22;35723;51.194;5.112;2022-12-18T02:30:01;-3.30;99.90
49829;DHT22;35723;51.194;5.112;2022-12-18T02:32:33;-3.30;99.90
49829;DHT22;35723;51.194;5.112;2022-12-18T02:35:01;-3.40;99.90
49829;DHT22;35723;51.194;5.112;2022-12-18T02:37:28;-3.40;99.90
49829;DHT22;35723;51.194;5.112;2022-12-18T02:39:57;-3.30;99.90
49829;DHT22;35723;51.194;5.112;2022-12-18T02:42:24;-3.30;99.90
49829;DHT22;35723;51.194;5.112;2022-12-18T02:44:51;-3.30;99.90
49829;DHT22;35723;51.194;5.112;2022-12-18T02:47:19;-3.30;99.90
49829;DHT22;35723;51.194;5.112;2022-12-18T02:52:32;-3.40;99.90
49829;DHT22;35723;51.194;5.112;2022-12-18T03:00:58;-3.10;99.90
49829;DHT22;35723;51.194;5.112;2022-12-18T03:03:39;-3.40;99.90
49829;DHT22;35723;51.194;5.112;2022-12-18T03:06:10;-3.30;99.90
49829;DHT22;35723;51.194;5.112;2022-12-18T03:08:40;-3.30;99.90
49829;DHT22;35723;51.194;5.112;2022-12-18T03:11:10;-3.30;99.90
49829;DHT22;35723;51.194;5.112;2022-12-18T03:13:50;-3.30;99.90
49829;DHT22;35723;51.194;5.112;2022-12-18T03:16:26;-3.20;99.90
49829;DHT22;35723;51.194;5.112;2022-12-18T03:21:32;-3.20;99.90
49829;DHT22;35723;51.194;5.112;2022-12-18T03:23:59;-3.20;99.90
49829;DHT22;35723;51.194;5.112;2022-12-18T03:26:27;-3.20;99.90
49829;DHT22;35723;51.194;5.112;2022-12-18T03:28:56;-3.40;99.90
49829;DHT22;35723;51.194;5.112;2022-12-18T03:31:26;-3.30;99.90
49829;DHT22;35723;51.194;5.112;2022-12-18T03:33:56;-3.40;99.90
49829;DHT22;35723;51.194;5.112;2022-12-18T03:36:23;-3.50;99.90
49829;DHT22;35723;51.194;5.112;2022-12-18T03:38:49;-3.40;99.90
49829;DHT22;35723;51.194;5.112;2022-12-18T03:43:59;-3.40;99.90
49829;DHT22;35723;51.194;5.112;2022-12-18T03:46:59;-3.40;99.90
49829;DHT22;35723;51.194;5.112;2022-12-18T03:49:45;-3.50;99.90
49829;DHT22;35723;51.194;5.112;2022-12-18T03:54:38;-3.60;99.90
49829;DHT22;35723;51.194;5.112;2022-12-18T03:57:26;-3.60;99.90
49829;DHT22;35723;51.194;5.112;2022-12-18T03:59:57;-3.60;99.90
49829;DHT22;35723;51.194;5.112;2022-12-18T04:02:25;-3.60;99.90
49829;DHT22;35723;51.194;5.112;2022-12-18T04:04:58;-3.60;99.90
49829;DHT22;35723;51.194;5.112;2022-12-18T04:07:25;-3.70;99.90
49829;DHT22;35723;51.194;5.112;2022-12-18T04:09:53;-3.60;99.90
49829;DHT22;35723;51.194;5.112;2022-12-18T04:12:21;-3.60;99.90
49829;DHT22;35723;51.194;5.112;2022-12-18T04:14:49;-3.60;99.90
49829;DHT22;35723;51.194;5.112;2022-12-18T04:17:14;-3.70;99.90
49829;DHT22;35723;51.194;5.112;2022-12-18T04:19:40;-3.60;99.90
49829;DHT22;35723;51.194;5.112;2022-12-18T04:22:05;-3.70;99.90
49829;DHT22;35723;51.194;5.112;2022-12-18T04:24:31;-3.70;99.90
49829;DHT22;35723;51.194;5.112;2022-12-18T04:26:57;-3.70;99.90
49829;DHT22;35723;51.194;5.112;2022-12-18T04:29:22;-3.80;99.90
49829;DHT22;35723;51.194;5.112;2022-12-18T04:31:48;-3.70;99.90
49829;DHT22;35723;51.194;5.112;2022-12-18T04:34:13;-3.80;99.90
49829;DHT22;35723;51.194;5.112;2022-12-18T04:36:39;-3.80;99.90
49829;DHT22;35723;51.194;5.112;2022-12-18T04:39:05;-3.80;99.90
49829;DHT22;35723;51.194;5.112;2022-12-18T04:41:30;-3.80;99.90
49829;DHT22;35723;51.194;5.112;2022-12-18T04:43:56;-3.80;99.90
49829;DHT22;35723;51.194;5.112;2022-12-18T04:46:21;-3.80;99.90
49829;DHT22;35723;51.194;5.112;2022-12-18T04:48:47;-3.80;99.90
49829;DHT22;35723;51.194;5.112;2022-12-18T04:51:13;-3.80;99.90
49829;DHT22;35723;51.194;5.112;2022-12-18T04:53:38;-3.80;99.90
49829;DHT22;35723;51.194;5.112;2022-12-18T04:56:10;-3.80;99.90
49829;DHT22;35723;51.194;5.112;2022-12-18T04:58:37;-3.90;99.90
49829;DHT22;35723;51.194;5.112;2022-12-18T05:01:04;-3.80;99.90
49829;DHT22;35723;51.194;5.112;2022-12-18T05:03:30;-3.80;99.90
49829;DHT22;35723;51.194;5.112;2022-12-18T05:05:56;-3.70;99.90
49829;DHT22;35723;51.194;5.112;2022-12-18T05:08:22;-3.70;99.90
49829;DHT22;35723;51.194;5.112;2022-12-18T05:10:48;-3.60;99.90
49829;DHT22;35723;51.194;5.112;2022-12-18T05:13:13;-3.60;99.90
49829;DHT22;35723;51.194;5.112;2022-12-18T05:15:39;-3.60;99.90
49829;DHT22;35723;51.194;5.112;2022-12-18T05:18:05;-3.50;99.90
49829;DHT22;35723;51.194;5.112;2022-12-18T05:20:31;-3.60;99.90
49829;DHT22;35723;51.194;5.112;2022-12-18T05:22:56;-3.50;99.90
49829;DHT22;35723;51.194;5.112;2022-12-18T05:25:22;-3.60;99.90
49829;DHT22;35723;51.194;5.112;2022-12-18T05:27:48;-3.60;99.90
49829;DHT22;35723;51.194;5.112;2022-12-18T05:30:15;-3.60;99.90
49829;DHT22;35723;51.194;5.112;2022-12-18T05:32:41;-3.60;99.90
49829;DHT22;35723;51.194;5.112;2022-12-18T05:35:09;-3.60;99.90
49829;DHT22;35723;51.194;5.112;2022-12-18T05:37:34;-3.60;99.90
49829;DHT22;35723;51.194;5.112;2022-12-18T05:40:01;-3.60;99.90
49829;DHT22;35723;51.194;5.112;2022-12-18T05:42:26;-3.60;99.90
49829;DHT22;35723;51.194;5.112;2022-12-18T05:44:52;-3.60;99.90
49829;DHT22;35723;51.194;5.112;2022-12-18T05:47:18;-3.60;99.90
49829;DHT22;35723;51.194;5.112;2022-12-18T05:49:43;-3.60;99.90
49829;DHT22;35723;51.194;5.112;2022-12-18T05:52:09;-3.60;99.90
49829;DHT22;35723;51.194;5.112;2022-12-18T05:54:35;-3.60;99.90
49829;DHT22;35723;51.194;5.112;2022-12-18T05:57:00;-3.60;99.90
49829;DHT22;35723;51.194;5.112;2022-12-18T05:59:26;-3.70;99.90
49829;DHT22;35723;51.194;5.112;2022-12-18T06:01:52;-3.70;99.90
49829;DHT22;35723;51.194;5.112;2022-12-18T06:04:17;-3.70;99.90
49829;DHT22;35723;51.194;5.112;2022-12-18T06:06:43;-3.70;99.90
49829;DHT22;35723;51.194;5.112;2022-12-18T06:09:08;-3.70;99.90
49829;DHT22;35723;51.194;5.112;2022-12-18T06:11:38;-3.60;99.90
49829;DHT22;35723;51.194;5.112;2022-12-18T06:14:05;-3.60;99.90
49829;DHT22;35723;51.194;5.112;2022-12-18T06:16:32;-3.60;99.90
49829;DHT22;35723;51.194;5.112;2022-12-18T06:18:58;-3.70;99.90
49829;DHT22;35723;51.194;5.112;2022-12-18T06:21:24;-3.70;99.90
49829;DHT22;35723;51.194;5.112;2022-12-18T06:23:50;-3.50;99.90
49829;DHT22;35723;51.194;5.112;2022-12-18T06:26:16;-3.70;99.90
49829;DHT22;35723;51.194;5.112;2022-12-18T06:28:42;-3.70;99.90
49829;DHT22;35723;51.194;5.112;2022-12-18T06:31:08;-3.70;99.90
49829;DHT22;35723;51.194;5.112;2022-12-18T06:33:34;-3.70;99.90
49829;DHT22;35723;51.194;5.112;2022-12-18T06:36:06;-3.70;99.90
49829;DHT22;35723;51.194;5.112;2022-12-18T06:38:37;-3.80;99.90
49829;DHT22;35723;51.194;5.112;2022-12-18T06:41:15;-3.80;99.90
49829;DHT22;35723;51.194;5.112;2022-12-18T06:43:42;-3.90;99.90
49829;DHT22;35723;51.194;5.112;2022-12-18T06:46:08;-3.90;99.90
49829;DHT22;35723;51.194;5.112;2022-12-18T06:48:34;-3.90;99.90
49829;DHT22;35723;51.194;5.112;2022-12-18T06:51:00;-3.90;99.90
49829;DHT22;35723;51.194;5.112;2022-12-18T06:53:26;-3.90;99.90
49829;DHT22;35723;51.194;5.112;2022-12-18T06:55:51;-3.90;99.90
49829;DHT22;35723;51.194;5.112;2022-12-18T06:58:17;-3.80;99.90
49829;DHT22;35723;51.194;5.112;2022-12-18T07:00:43;-3.50;99.90
49829;DHT22;35723;51.194;5.112;2022-12-18T07:03:09;-3.80;99.90
49829;DHT22;35723;51.194;5.112;2022-12-18T07:05:40;-3.80;99.90
49829;DHT22;35723;51.194;5.112;2022-12-18T07:08:06;-3.80;99.90
49829;DHT22;35723;51.194;5.112;2022-12-18T07:10:32;-3.60;99.90
49829;DHT22;35723;51.194;5.112;2022-12-18T07:12:57;-3.80;99.90
49829;DHT22;35723;51.194;5.112;2022-12-18T07:15:23;-3.70;99.90
49829;DHT22;35723;51.194;5.112;2022-12-18T07:17:48;-3.80;99.90
49829;DHT22;35723;51.194;5.112;2022-12-18T07:20:14;-3.80;99.90
49829;DHT22;35723;51.194;5.112;2022-12-18T07:22:40;-3.70;99.90
49829;DHT22;35723;51.194;5.112;2022-12-18T07:25:06;-3.80;99.90
49829;DHT22;35723;51.194;5.112;2022-12-18T07:27:32;-3.80;99.90
49829;DHT22;35723;51.194;5.112;2022-12-18T07:29:57;-3.70;99.90
49829;DHT22;35723;51.194;5.112;2022-12-18T07:32:23;-3.60;99.90
49829;DHT22;35723;51.194;5.112;2022-12-18T07:34:49;-3.60;99.90
49829;DHT22;35723;51.194;5.112;2022-12-18T07:37:14;-3.20;99.90
49829;DHT22;35723;51.194;5.112;2022-12-18T07:39:40;-3.20;99.90
49829;DHT22;35723;51.194;5.112;2022-12-18T07:42:06;-3.40;99.90
49829;DHT22;35723;51.194;5.112;2022-12-18T07:44:50;-3.30;99.90
49829;DHT22;35723;51.194;5.112;2022-12-18T07:47:16;-3.20;99.90
49829;DHT22;35723;51.194;5.112;2022-12-18T07:49:41;-3.20;99.90
49829;DHT22;35723;51.194;5.112;2022-12-18T07:52:08;-3.20;99.90
49829;DHT22;35723;51.194;5.112;2022-12-18T08:11:21;-3.10;99.90
49829;DHT22;35723;51.194;5.112;2022-12-18T08:13:47;-2.80;99.90
49829;DHT22;35723;51.194;5.112;2022-12-18T08:16:12;-2.90;99.90
49829;DHT22;35723;51.194;5.112;2022-12-18T08:18:38;-3.00;99.90
49829;DHT22;35723;51.194;5.112;2022-12-18T08:31:59;-2.90;99.90
49829;DHT22;35723;51.194;5.112;2022-12-18T08:38:12;-2.60;99.90
49829;DHT22;35723;51.194;5.112;2022-12-18T08:50:56;-0.20;99.90
49829;DHT22;35723;51.194;5.112;2022-12-18T09:03:38;0.00;99.90
49829;DHT22;35723;51.194;5.112;2022-12-18T09:06:04;-0.30;99.90
49829;DHT22;35723;51.194;5.112;2022-12-18T16:39:44;0.50;99.90
49829;DHT22;35723;51.194;5.112;2022-12-18T16:42:18;0.50;99.90
49829;DHT22;35723;51.194;5.112;2022-12-18T16:44:44;0.50;99.90
49829;DHT22;35723;51.194;5.112;2022-12-18T16:47:10;0.60;99.90
49829;DHT22;35723;51.194;5.112;2022-12-18T16:49:36;0.60;99.90
49829;DHT22;35723;51.194;5.112;2022-12-18T16:52:03;0.80;99.90
49829;DHT22;35723;51.194;5.112;2022-12-18T16:54:29;0.90;99.90
49829;DHT22;35723;51.194;5.112;2022-12-18T16:56:55;0.70;99.90
49829;DHT22;35723;51.194;5.112;2022-12-18T16:59:21;0.70;99.90
49829;DHT22;35723;51.194;5.112;2022-12-18T17:01:47;0.70;99.90
49829;DHT22;35723;51.194;5.112;2022-12-18T17:04:13;0.70;99.90
49829;DHT22;35723;51.194;5.112;2022-12-18T17:06:41;0.70;99.90
49829;DHT22;35723;51.194;5.112;2022-12-18T17:09:10;0.70;99.90
49829;DHT22;35723;51.194;5.112;2022-12-18T17:11:36;0.80;99.90
49829;DHT22;35723;51.194;5.112;2022-12-18T17:14:12;0.70;99.90
49829;DHT22;35723;51.194;5.112;2022-12-18T17:16:38;0.80;99.90
49829;DHT22;35723;51.194;5.112;2022-12-18T17:19:03;0.80;99.90
49829;DHT22;35723;51.194;5.112;2022-12-18T17:21:29;0.90;99.90
49829;DHT22;35723;51.194;5.112;2022-12-18T17:23:55;0.80;99.90
49829;DHT22;35723;51.194;5.112;2022-12-18T17:26:23;0.80;99.90
49829;DHT22;35723;51.194;5.112;2022-12-18T17:28:49;0.80;99.90
49829;DHT22;35723;51.194;5.112;2022-12-18T17:31:20;0.80;99.90
49829;DHT22;35723;51.194;5.112;2022-12-18T17:33:46;0.90;99.90
49829;DHT22;35723;51.194;5.112;2022-12-18T17:39:34;1.00;99.90
49829;DHT22;35723;51.194;5.112;2022-12-18T17:42:00;1.00;99.90
49829;DHT22;35723;51.194;5.112;2022-12-18T17:44:25;1.00;99.90
49829;DHT22;35723;51.194;5.112;2022-12-18T17:46:51;1.00;99.90
49829;DHT22;35723;51.194;5.112;2022-12-18T17:49:17;1.00;99.90
49829;DHT22;35723;51.194;5.112;2022-12-18T17:51:43;1.00;99.90
49829;DHT22;35723;51.194;5.112;2022-12-18T17:54:09;1.20;99.90
49829;DHT22;35723;51.194;5.112;2022-12-18T17:59:57;1.00;99.90
49829;DHT22;35723;51.194;5.112;2022-12-18T18:05:45;1.10;99.90
49829;DHT22;35723;51.194;5.112;2022-12-18T18:08:11;1.10;99.90
49829;DHT22;35723;51.194;5.112;2022-12-18T18:10:38;1.10;99.90
49829;DHT22;35723;51.194;5.112;2022-12-18T18:13:05;1.20;99.90
49829;DHT22;35723;51.194;5.112;2022-12-18T18:15:56;1.20;99.90
49829;DHT22;35723;51.194;5.112;2022-12-18T18:18:25;1.20;99.90
49829;DHT22;35723;51.194;5.112;2022-12-18T18:20:51;1.30;99.90
49829;DHT22;35723;51.194;5.112;2022-12-18T18:23:16;1.30;99.90
49829;DHT22;35723;51.194;5.112;2022-12-18T18:25:42;1.30;99.90
49829;DHT22;35723;51.194;5.112;2022-12-18T18:28:07;1.30;99.90
49829;DHT22;35723;51.194;5.112;2022-12-18T18:30:35;1.40;99.90
49829;DHT22;35723;51.194;5.112;2022-12-18T18:33:01;1.30;99.90
49829;DHT22;35723;51.194;5.112;2022-12-18T18:35:28;1.30;99.90
49829;DHT22;35723;51.194;5.112;2022-12-18T18:37:53;1.40;99.90
49829;DHT22;35723;51.194;5.112;2022-12-18T18:40:19;1.40;99.90
49829;DHT22;35723;51.194;5.112;2022-12-18T18:42:46;1.50;99.90
49829;DHT22;35723;51.194;5.112;2022-12-18T18:45:12;1.70;99.90
49829;DHT22;35723;51.194;5.112;2022-12-18T18:47:37;1.50;99.90
49829;DHT22;35723;51.194;5.112;2022-12-18T18:50:03;1.40;99.90
49829;DHT22;35723;51.194;5.112;2022-12-18T18:55:51;1.60;99.90
49829;DHT22;35723;51.194;5.112;2022-12-18T18:58:17;1.60;99.90
49829;DHT22;35723;51.194;5.112;2022-12-18T19:00:43;1.60;99.90
49829;DHT22;35723;51.194;5.112;2022-12-18T19:03:08;1.70;99.90
49829;DHT22;35723;51.194;5.112;2022-12-18T19:05:34;1.70;99.90
49829;DHT22;35723;51.194;5.112;2022-12-18T19:07:59;1.70;99.90
49829;DHT22;35723;51.194;5.112;2022-12-18T19:10:25;1.70;99.90
49829;DHT22;35723;51.194;5.112;2022-12-18T19:12:51;1.70;99.90
49829;DHT22;35723;51.194;5.112;2022-12-18T19:15:35;1.60;99.90
49829;DHT22;35723;51.194;5.112;2022-12-18T19:18:01;1.60;99.90
49829;DHT22;35723;51.194;5.112;2022-12-18T19:23:31;1.60;99.90
49829;DHT22;35723;51.194;5.112;2022-12-18T19:26:02;1.60;99.90
49829;DHT22;35723;51.194;5.112;2022-12-18T19:28:28;1.60;99.90
49829;DHT22;35723;51.194;5.112;2022-12-18T19:30:57;1.60;99.90
49829;DHT22;35723;51.194;5.112;2022-12-18T19:33:23;1.70;99.90
49829;DHT22;35723;51.194;5.112;2022-12-18T19:36:22;1.60;99.90
49829;DHT22;35723;51.194;5.112;2022-12-18T19:38:49;1.60;99.90
49829;DHT22;35723;51.194;5.112;2022-12-18T19:41:15;1.70;99.90
49829;DHT22;35723;51.194;5.112;2022-12-18T19:43:42;1.70;99.90
49829;DHT22;35723;51.194;5.112;2022-12-18T19:46:11;1.70;99.90
49829;DHT22;35723;51.194;5.112;2022-12-18T19:48:37;1.70;99.90
49829;DHT22;35723;51.194;5.112;2022-12-18T19:51:18;1.60;99.90
49829;DHT22;35723;51.194;5.112;2022-12-18T19:53:44;1.60;99.90
49829;DHT22;35723;51.194;5.112;2022-12-18T19:56:13;1.60;99.90
49829;DHT22;35723;51.194;5.112;2022-12-18T19:58:39;1.60;99.90
49829;DHT22;35723;51.194;5.112;2022-12-18T20:01:05;1.60;99.90
49829;DHT22;35723;51.194;5.112;2022-12-18T20:03:30;1.80;99.90
49829;DHT22;35723;51.194;5.112;2022-12-18T20:06:07;1.70;99.90
49829;DHT22;35723;51.194;5.112;2022-12-18T20:08:33;1.70;99.90
49829;DHT22;35723;51.194;5.112;2022-12-18T20:10:59;1.70;99.90
49829;DHT22;35723;51.194;5.112;2022-12-18T20:13:24;1.60;99.90
49829;DHT22;35723;51.194;5.112;2022-12-18T20:16:11;1.70;99.90
49829;DHT22;35723;51.194;5.112;2022-12-18T20:18:37;1.70;99.90
49829;DHT22;35723;51.194;5.112;2022-12-18T20:21:03;1.70;99.90
49829;DHT22;35723;51.194;5.112;2022-12-18T20:23:31;1.80;99.90
49829;DHT22;35723;51.194;5.112;2022-12-18T20:25:57;1.80;99.90
49829;DHT22;35723;51.194;5.112;2022-12-18T20:28:23;1.70;99.90
49829;DHT22;35723;51.194;5.112;2022-12-18T20:30:50;1.80;99.90
49829;DHT22;35723;51.194;5.112;2022-12-18T20:33:16;1.80;99.90
49829;DHT22;35723;51.194;5.112;2022-12-18T20:35:42;2.40;99.90
49829;DHT22;35723;51.194;5.112;2022-12-18T20:38:07;2.60;99.90
49829;DHT22;35723;51.194;5.112;2022-12-18T20:40:33;2.40;99.90
49829;DHT22;35723;51.194;5.112;2022-12-18T20:42:59;2.00;99.90
49829;DHT22;35723;51.194;5.112;2022-12-18T20:45:26;1.80;99.90
49829;DHT22;35723;51.194;5.112;2022-12-18T20:47:53;1.80;99.90
49829;DHT22;35723;51.194;5.112;2022-12-18T20:50:19;1.90;99.90
49829;DHT22;35723;51.194;5.112;2022-12-18T20:52:46;1.90;99.90
49829;DHT22;35723;51.194;5.112;2022-12-18T20:55:12;1.90;99.90
49829;DHT22;35723;51.194;5.112;2022-12-18T20:57:37;2.00;99.90
49829;DHT22;35723;51.194;5.112;2022-12-18T21:00:04;2.00;99.90
49829;DHT22;35723;51.194;5.112;2022-12-18T21:02:30;2.10;99.90
49829;DHT22;35723;51.194;5.112;2022-12-18T21:04:55;2.10;99.90
49829;DHT22;35723;51.194;5.112;2022-12-18T21:07:21;2.20;99.90
49829;DHT22;35723;51.194;5.112;2022-12-18T21:09:46;2.20;99.90
49829;DHT22;35723;51.194;5.112;2022-12-18T21:12:13;2.30;99.90
49829;DHT22;35723;51.194;5.112;2022-12-18T21:15:06;2.30;99.90
49829;DHT22;35723;51.194;5.112;2022-12-18T21:17:32;2.40;99.90
49829;DHT22;35723;51.194;5.112;2022-12-18T21:19:58;2.40;99.90
49829;DHT22;35723;51.194;5.112;2022-12-18T21:22:25;2.40;99.90
49829;DHT22;35723;51.194;5.112;2022-12-18T21:24:50;2.40;99.90
49829;DHT22;35723;51.194;5.112;2022-12-18T21:27:16;2.40;99.90
49829;DHT22;35723;51.194;5.112;2022-12-18T21:29:42;2.40;99.90
49829;DHT22;35723;51.194;5.112;2022-12-18T21:32:09;2.50;99.90
49829;DHT22;35723;51.194;5.112;2022-12-18T21:34:34;2.50;99.90
49829;DHT22;35723;51.194;5.112;2022-12-18T21:37:00;2.40;99.90
49829;DHT22;35723;51.194;5.112;2022-12-18T21:39:28;2.50;99.90
49829;DHT22;35723;51.194;5.112;2022-12-18T21:41:55;2.50;99.90
49829;DHT22;35723;51.194;5.112;2022-12-18T21:44:39;2.50;99.90
49829;DHT22;35723;51.194;5.112;2022-12-18T21:47:05;2.50;99.90
49829;DHT22;35723;51.194;5.112;2022-12-18T21:49:31;2.50;99.90
49829;DHT22;35723;51.194;5.112;2022-12-18T21:51:59;2.60;99.90
49829;DHT22;35723;51.194;5.112;2022-12-18T21:54:26;2.60;99.90
49829;DHT22;35723;51.194;5.112;2022-12-18T21:59:28;2.60;99.90
49829;DHT22;35723;51.194;5.112;2022-12-18T22:01:56;2.60;99.90
49829;DHT22;35723;51.194;5.112;2022-12-18T22:04:23;2.60;99.90
49829;DHT22;35723;51.194;5.112;2022-12-18T22:06:49;2.60;99.90
49829;DHT22;35723;51.194;5.112;2022-12-18T22:09:17;2.60;99.90
49829;DHT22;35723;51.194;5.112;2022-12-18T22:11:44;2.60;99.90
49829;DHT22;35723;51.194;5.112;2022-12-18T22:14:11;2.60;99.90
49829;DHT22;35723;51.194;5.112;2022-12-18T22:16:38;2.50;99.90
49829;DHT22;35723;51.194;5.112;2022-12-18T22:19:04;2.60;99.90
49829;DHT22;35723;51.194;5.112;2022-12-18T22:21:32;2.60;99.90
49829;DHT22;35723;51.194;5.112;2022-12-18T22:24:04;2.60;99.90
49829;DHT22;35723;51.194;5.112;2022-12-18T22:26:32;2.60;99.90
49829;DHT22;35723;51.194;5.112;2022-12-18T22:28:58;2.60;99.90
49829;DHT22;35723;51.194;5.112;2022-12-18T22:31:43;2.50;99.90
49829;DHT22;35723;51.194;5.112;2022-12-18T22:34:08;2.50;99.90
49829;DHT22;35723;51.194;5.112;2022-12-18T22:36:43;2.60;99.90
49829;DHT22;35723;51.194;5.112;2022-12-18T22:39:15;2.70;99.90
49829;DHT22;35723;51.194;5.112;2022-12-18T22:41:40;2.70;99.90
49829;DHT22;35723;51.194;5.112;2022-12-18T22:44:06;2.70;99.90
49829;DHT22;35723;51.194;5.112;2022-12-18T22:46:35;2.70;99.90
49829;DHT22;35723;51.194;5.112;2022-12-18T22:49:02;2.70;99.90
49829;DHT22;35723;51.194;5.112;2022-12-18T22:51:27;2.70;99.90
49829;DHT22;35723;51.194;5.112;2022-12-18T22:53:53;2.70;99.90
49829;DHT22;35723;51.194;5.112;2022-12-18T22:56:18;2.70;99.90
49829;DHT22;35723;51.194;5.112;2022-12-18T22:58:47;3.00;99.90
49829;DHT22;35723;51.194;5.112;2022-12-18T23:01:19;2.80;99.90
49829;DHT22;35723;51.194;5.112;2022-12-18T23:03:45;2.80;99.90
49829;DHT22;35723;51.194;5.112;2022-12-18T23:06:11;2.80;99.90
49829;DHT22;35723;51.194;5.112;2022-12-18T23:08:37;2.80;99.90
49829;DHT22;35723;51.194;5.112;2022-12-18T23:11:03;2.90;99.90
49829;DHT22;35723;51.194;5.112;2022-12-18T23:13:29;2.90;99.90
49829;DHT22;35723;51.194;5.112;2022-12-18T23:15:54;2.90;99.90
49829;DHT22;35723;51.194;5.112;2022-12-18T23:18:21;2.90;99.90
49829;DHT22;35723;51.194;5.112;2022-12-18T23:20:47;2.90;99.90
49829;DHT22;35723;51.194;5.112;2022-12-18T23:23:13;3.00;99.90
49829;DHT22;35723;51.194;5.112;2022-12-18T23:25:38;2.90;99.90
49829;DHT22;35723;51.194;5.112;2022-12-18T23:28:04;3.00;99.90
49829;DHT22;35723;51.194;5.112;2022-12-18T23:30:31;3.00;99.90
49829;DHT22;35723;51.194;5.112;2022-12-18T23:36:19;3.00;99.90
49829;DHT22;35723;51.194;5.112;2022-12-18T23:38:49;3.00;99.90
49829;DHT22;35723;51.194;5.112;2022-12-18T23:41:16;3.00;99.90
49829;DHT22;35723;51.194;5.112;2022-12-18T23:43:42;3.00;99.90
49829;DHT22;35723;51.194;5.112;2022-12-18T23:46:19;3.00;99.90
49829;DHT22;35723;51.194;5.112;2022-12-18T23:48:46;3.20;99.90
49829;DHT22;35723;51.194;5.112;2022-12-18T23:51:32;3.20;99.90
49829;DHT22;35723;51.194;5.112;2022-12-18T23:53:59;3.10;99.90
49829;DHT22;35723;51.194;5.112;2022-12-18T23:56:27;3.20;99.90
49829;DHT22;35723;51.194;5.112;2022-12-18T23:58:53;3.20;99.90
